Tiempo atmosférico en la estación meteorológica de Jimena de la Frontera, Cádiz (50 m.)



Fecha
DESCASC
Temp. máxima en grados centígrados (hora)
DESCASC
Temp. mínima en grados centígrados (hora)
DESCASC
Temp. media en grados centígrados
DESCASC
Racha de viento máxima en m/sg (hora)
DESCASC
Velocidad máxima media en intervalos de 10 minutos(hora)
DESCASC
Precipitaciones diarias en mm
DESCASC
Precipitaciones de 00:00 a 06:00 en mm
DESCASC
Precipitaciones de 06:00 a 12:00 en mm
DESCASC
Precipitaciones de 12:00 a 18:00 en mm
DESCASC
Precipitaciones de 18:00 a 24:00 en mm
DESCASC
13-10-2019 25.9 (16:20) 16.3 (07:00) 21.1 9.17 (16:50) 5.56 (18:00) 0 0 0 0 0
12-10-2019 26.6 (14:50) 17.4 (08:40) 22 10 (13:50) 6.39 (13:10) 0 0 0 0 0
11-10-2019 26 (13:50) 20.9 (23:59) 23.4 12.5 (15:10) 6.94 (14:30) 0 0 0 0 0
10-10-2019 25.7 (15:40) 12.2 (00:00) 19 14.44 (15:50) 8.33 (15:50) 0 0 0 0 0
09-10-2019 27.7 (14:40) 12.5 (00:00) 20.1 8.33 (14:30) 4.17 (15:10) 0 0 0 0 0
08-10-2019 27.5 (13:50) 13.6 (00:00) 20.6 14.17 (14:30) 7.22 (16:20) 0 0 0 0 0
07-10-2019 35.7 (17:10) 13 (00:00) 24.4 6.67 (16:10) 4.17 (15:30) 0 0 0 0 0
06-10-2019 33.7 (16:10) 11 (00:00) 22.4 7.5 (17:20) 4.44 (17:20) 0 0 0 0 0
05-10-2019 29.9 (14:10) 11.5 (00:00) 20.7 10 (16:10) 6.39 (16:20) 0 0 0 0 0
04-10-2019 32 (14:50) 11.4 (00:00) 21.7 8.61 (16:20) 4.72 (16:10) 0 0 0 0 0
03-10-2019 28.6 (16:50) 11.8 (00:00) 20.2 10.83 (15:10) 6.11 (14:10) 0 0 0 0 0
02-10-2019 28 (15:50) 14 (00:00) 21 11.94 (16:30) 7.22 (15:10) 0 0 0 0 0
01-10-2019 32.1 (15:40) 12 (00:00) 22 11.39 (14:10) 6.67 (18:50) 0 0 0 0 0
30-09-2019 33.9 (14:40) 11.7 (00:00) 22.8 6.67 (15:20) 3.89 (15:20) 0 0 0 0 0
29-09-2019 29.1 (16:20) 14.8 (00:00) 22 6.11 (14:40) 3.33 (16:00) 0 0 0 0 0
28-09-2019 30.6 (15:50) 12.5 (00:00) 21.6 6.94 (16:20) 3.89 (14:40) 0 0 0 0 0
27-09-2019 31.1 (16:20) 16.5 (00:00) 23.8 7.22 (17:30) 4.17 (17:30) 0 0 0 0 0
26-09-2019 29.4 (16:30) 11.5 (00:00) 20.4 7.5 (13:10) 3.89 (12:40) 0 0 0 0 0
25-09-2019 32.4 (15:30) 17.3 (00:00) 24.9 10.28 (15:40) 5.83 (17:20) 0 0 0 0 0
24-09-2019 33 (14:10) 11.1 (00:00) 22.1 8.61 (15:40) 5 (15:40) 0 0 0 0 0
23-09-2019 30.9 (14:40) 12.4 (00:00) 21.6 7.78 (15:30) 4.44 (17:50) 0 0 0 0 0
22-09-2019 27.2 (16:30) 17 (00:00) 22.1 10.28 (15:40) 6.39 (15:40) 0 0 0 0 0
21-09-2019 29.4 (16:20) 20 (00:00) 24.7 8.06 (19:20) 4.44 (19:50) 0 0 0 0 0
20-09-2019 25.3 (15:10) 17.4 (00:00) 21.3 9.72 (16:10) 5.83 (16:10) 0 0 0 0 0
19-09-2019 31.2 (14:40) 14.1 (00:00) 22.7 8.61 (16:30) 5 (16:40) 0 0 0 0 0
18-09-2019 31.4 (15:40) 17.7 (00:00) 24.6 6.67 (17:40) 3.89 (17:50) 0 0 0 0 0
17-09-2019 28.7 (15:50) 18.8 (00:00) 23.8 10.28 (15:30) 5.83 (13:00) 0 0 0 0 0
16-09-2019 28.3 (14:10) 16.4 (00:00) 22.3 8.33 (15:20) 4.72 (15:20) 0 0 0 0 0

Gráficas

Temp. máximas Temp. mínimas Temp. medias Precipitaciones Rachas de viento máximas Velocidades máximas media en intervalos de 10 minutos

Datos horarios

Fecha y hora oficial Temperatura (ºC) Velocidad del viento (km/h) Dirección del viento Racha (km/h) Dirección de racha Precipitación (mm) Presión (hPa) Tendencia (hPa) Humedad (%)
2019-10-15 23:00:00 11.9 6 Este 8 Este 0 -- -- 69
2019-10-15 22:00:00 15 2 Noroeste 9 Noroeste 0 -- -- 57
2019-10-15 21:00:00 17.4 6 Noroeste 10 Noroeste 0 -- -- 46
2019-10-15 20:00:00 19.7 7 Noroeste 17 Oeste 0 -- -- 41
2019-10-15 19:00:00 22 12 Oeste 26 Noroeste 0 -- -- 34
2019-10-15 18:00:00 23.6 14 Noroeste 23 Noroeste 0 -- -- 33
2019-10-15 17:00:00 24 13 Noroeste 27 Oeste 0 -- -- 33
2019-10-15 16:00:00 23.4 13 Noroeste 29 Oeste 0 -- -- 34
2019-10-15 15:00:00 22.8 16 Oeste 29 Oeste 0 -- -- 33
2019-10-15 14:00:00 23.3 13 Sudoeste 22 Sudoeste 0 -- -- 37
2019-10-15 13:00:00 21.7 7 Sudoeste 17 Sudoeste 0 -- -- 46
2019-10-15 12:00:00 19.4 8 Sudoeste 16 Oeste 0 -- -- 55
2019-10-15 11:00:00 16.9 2 Sudeste 8 Norte 0 -- -- 77
2019-10-15 10:00:00 12.9 4 Norte 7 Norte 0 -- -- 94
2019-10-15 09:00:00 8.8 4 Nordeste 8 Este 0 -- -- 98
2019-10-15 08:00:00 9.2 4 Este 7 Nordeste 0 -- -- 96
2019-10-15 07:00:00 10.5 3 Este 12 Nordeste 0 -- -- 96
2019-10-15 06:00:00 11.2 4 Norte 9 Oeste 0 -- -- 94
2019-10-15 05:00:00 12.7 2 Este 10 Noroeste 0 -- -- 94
2019-10-15 04:00:00 14.2 5 Noroeste 11 Noroeste 0 -- -- 90
2019-10-15 03:00:00 14.1 3 Noroeste 9 Noroeste 0 -- -- 93
2019-10-15 02:00:00 14.6 3 Noroeste 9 Oeste 0 -- -- 93
2019-10-15 01:00:00 15.2 3 Norte 8 Noroeste 0 -- -- 95
2019-10-15 00:00:00 16 5 Norte 9 Noroeste 0 -- -- 95
2019-10-14 23:00:00 16.6 4 Este 13 Norte 0.8 -- -- 93
2019-10-14 22:00:00 17.6 0 Calma 12 Nordeste 0 -- -- 82
2019-10-14 21:00:00 18.7 5 Norte 21 Oeste 0 -- -- 74
2019-10-14 20:00:00 19.6 12 Oeste 32 Oeste 0 -- -- 65
2019-10-14 19:00:00 20.7 22 Oeste 42 Oeste 0 -- -- 56
2019-10-14 18:00:00 22.3 24 Oeste 43 Oeste 0 -- -- 50
2019-10-14 17:00:00 23.5 19 Oeste 34 Oeste 0 -- -- 58
2019-10-14 16:00:00 23.6 20 Oeste 37 Oeste 0 -- -- 62
2019-10-14 15:00:00 22.7 15 Oeste 34 Oeste 0 -- -- 67
2019-10-14 14:00:00 23 13 Oeste 31 Oeste 0 -- -- 64
2019-10-14 13:00:00 22.4 18 Oeste 30 Oeste 0 -- -- 67
2019-10-14 12:00:00 20.9 14 Oeste 25 Oeste 0 -- -- 75
2019-10-14 11:00:00 19.4 9 Oeste 23 Noroeste 0 -- -- 87
2019-10-14 10:00:00 19.3 6 Sudoeste 13 Oeste 3 -- -- 95
2019-10-14 09:00:00 18.1 3 Sur 10 Oeste 1.6 -- -- 95
2019-10-14 08:00:00 17.8 3 Oeste 8 Oeste 0 -- -- 96
2019-10-14 07:00:00 18.9 2 Nordeste 10 Este 0 -- -- 95
2019-10-14 06:00:00 19.2 5 Este 10 Noroeste 0 -- -- 97
2019-10-14 05:00:00 19.2 5 Este 7 Este 0 -- -- 97
2019-10-14 04:00:00 18.8 2 Nordeste 6 Este 0 -- -- 96
2019-10-14 03:00:00 19.4 2 Este 4 Sudoeste 0 -- -- 94
2019-10-14 02:00:00 20.3 2 Sudeste 8 Sudoeste 0.4 -- -- 91
2019-10-14 01:00:00 20.9 4 Sur 9 Sudoeste 0 -- -- 86
2019-10-14 00:00:00 20.9 4 Sudeste 12 Sudeste 0 -- -- 86
2019-10-13 23:00:00 20.9 5 Sur 11 Sur 0 -- -- 86
2019-10-13 22:00:00 20.8 5 Sudeste 10 Sudeste 0 -- -- 85
2019-10-13 21:00:00 20.9 5 Sur 16 Sur 0 -- -- 85
2019-10-13 20:00:00 21 7 Sudeste 23 Sudeste 0 -- -- 85
2019-10-13 19:00:00 22.3 14 Sudeste 33 Sudeste 0 -- -- 80
2019-10-13 18:00:00 23.8 20 Sudeste 32 Sudeste 0 -- -- 74
2019-10-13 17:00:00 25.4 13 Sudeste 33 Sudeste 0 -- -- 67
2019-10-13 16:00:00 25.1 17 Sudeste 32 Sudeste 0 -- -- 69
2019-10-13 15:00:00 25.4 15 Sudeste 31 Sudeste 0 -- -- 69
2019-10-13 14:00:00 25.5 12 Sudeste 26 Este 0 -- -- 68
2019-10-13 13:00:00 23.5 8 Sudeste 17 Sudeste 0 -- -- 76
2019-10-13 12:00:00 21 3 Noroeste 5 Noroeste 0 -- -- 84
2019-10-13 11:00:00 19.7 2 Noroeste 4 Noroeste 0 -- -- 87
2019-10-13 10:00:00 18.5 2 Noroeste 4 Norte 0 -- -- 92
2019-10-13 09:00:00 17.4 0 Calma 4 Sudoeste 0 -- -- 94
2019-10-13 08:00:00 16.6 2 Sur 4 Sur 0 -- -- 95
2019-10-13 07:00:00 16.3 2 Este 5 Norte 0 -- -- 94
2019-10-13 06:00:00 16.7 4 Nordeste 5 Nordeste 0 -- -- 92
2019-10-13 05:00:00 17.7 0 Calma 4 Este 0 -- -- 92
2019-10-13 04:00:00 17.4 0 Calma 3 Nordeste 0 -- -- 93
2019-10-13 03:00:00 17 3 Este 4 Este 0 -- -- 93
2019-10-13 02:00:00 17.2 2 Norte 6 Nordeste 0 -- -- 92
2019-10-13 01:00:00 16.9 3 Nordeste 8 Este 0 -- -- 93
2019-10-13 00:00:00 17.4 5 Este 8 Nordeste 0 -- -- 91
2019-10-12 23:00:00 18.3 6 Este 9 Este 0 -- -- 89
2019-10-12 22:00:00 19.6 4 Este 6 Nordeste 0 -- -- 85
2019-10-12 21:00:00 21.4 3 Sudeste 13 Sudeste 0 -- -- 80
2019-10-12 20:00:00 22.7 8 Sudeste 16 Sudeste 0 -- -- 76
2019-10-12 19:00:00 23.9 9 Sudeste 21 Sudeste 0 -- -- 71
2019-10-12 18:00:00 24.5 10 Sudeste 26 Sur 0 -- -- 68
2019-10-12 17:00:00 25.1 14 Sudeste 29 Sudeste 0 -- -- 67
2019-10-12 16:00:00 25.2 17 Sudeste 33 Sudeste 0 -- -- 65
2019-10-12 15:00:00 26.3 16 Sudeste 30 Sudeste 0 -- -- 62
2019-10-12 14:00:00 25.8 17 Sudeste 36 Sudeste 0 -- -- 62
2019-10-12 13:00:00 25.5 21 Sudeste 34 Sudeste 0 -- -- 63
2019-10-12 12:00:00 25.3 15 Sudeste 27 Sudeste 0 -- -- 66
2019-10-12 11:00:00 24.2 14 Sudeste 26 Este 0 -- -- 70
2019-10-12 10:00:00 19.7 4 Oeste 8 Noroeste 0 -- -- 88
2019-10-12 09:00:00 17.6 4 Nordeste 7 Nordeste 0 -- -- 93
2019-10-12 08:00:00 17.7 3 Nordeste 8 Nordeste 0 -- -- 93
2019-10-12 07:00:00 18.1 0 Calma 5 Nordeste 0 -- -- 93
2019-10-12 06:00:00 18.4 2 Noroeste 9 Nordeste 0 -- -- 93
2019-10-12 05:00:00 18.4 4 Este 9 Este 0 -- -- 93
2019-10-12 04:00:00 19 3 Nordeste 10 Oeste 0 -- -- 91
2019-10-12 03:00:00 19.4 3 Este 8 Nordeste 0 -- -- 90
2019-10-12 02:00:00 19.5 5 Nordeste 12 Nordeste 0 -- -- 89
2019-10-12 01:00:00 19.7 4 Nordeste 9 Nordeste 0 -- -- 87
2019-10-12 00:00:00 20.9 4 Sur 10 Sudeste 0 -- -- 85
2019-10-11 23:00:00 21.4 7 Sudeste 11 Sudeste 0 -- -- 84
2019-10-11 22:00:00 21.7 4 Sudeste 19 Este 0 -- -- 83
2019-10-11 21:00:00 21.6 7 Sudeste 19 Este 0 -- -- 82
2019-10-11 20:00:00 22.1 9 Sudeste 24 Sudeste 0 -- -- 80
2019-10-11 19:00:00 23 14 Sudeste 30 Sudeste 0 -- -- 75
2019-10-11 18:00:00 23.4 18 Sudeste 34 Este 0 -- -- 73
2019-10-11 17:00:00 23.9 21 Sudeste 37 Sudeste 0 -- -- 70
2019-10-11 16:00:00 24.4 20 Sudeste 45 Sudeste 0 -- -- 68
2019-10-11 15:00:00 25.1 22 Sudeste 44 Sudeste 0 -- -- 64
2019-10-11 14:00:00 25.8 23 Sudeste 42 Sudeste 0 -- -- 62
2019-10-11 13:00:00 25.1 18 Sudeste 37 Este 0 -- -- 64
2019-10-11 12:00:00 24 20 Este 37 Este 0 -- -- 64
2019-10-11 11:00:00 23.2 14 Sudeste 31 Este 0 -- -- 69
2019-10-11 10:00:00 23.1 16 Sudeste 34 Este 0 -- -- 68
2019-10-11 09:00:00 21.8 10 Sudeste 24 Este 0 -- -- 72
2019-10-11 08:00:00 21.4 11 Sudeste 25 Sudeste 0 -- -- 74
2019-10-11 07:00:00 21.5 13 Sudeste 32 Sudeste 0 -- -- 76
2019-10-11 06:00:00 21.7 13 Sudeste 32 Este 0 -- -- 74
2019-10-11 05:00:00 21.6 12 Sudeste 30 Sudeste 0 -- -- 75
2019-10-11 04:00:00 21.9 17 Sudeste 34 Sudeste 0 -- -- 74
2019-10-11 03:00:00 21.7 12 Sudeste 30 Sudeste 0 -- -- 73
2019-10-11 02:00:00 21.5 10 Sudeste 25 Sudeste 0 -- -- 73
2019-10-11 01:00:00 22 10 Sudeste 22 Sudeste 0 -- -- 71
2019-10-11 00:00:00 21.5 8 Sudeste 18 Sudeste 0 -- -- 74
2019-10-10 23:00:00 21.8 9 Sudeste 23 Sudeste 0 -- -- 74
2019-10-10 22:00:00 21.8 12 Sudeste 27 Sudeste 0 -- -- 77
2019-10-10 21:00:00 21.9 13 Sudeste 30 Sudeste 0 -- -- 79
2019-10-10 20:00:00 22.2 16 Sudeste 39 Este 0 -- -- 77
2019-10-10 19:00:00 23.6 15 Sudeste 44 Este 0 -- -- 71
2019-10-10 18:00:00 24 25 Este 46 Este 0 -- -- 71
2019-10-10 17:00:00 24.9 27 Este 48 Este 0 -- -- 64
2019-10-10 16:00:00 25.6 25 Sudeste 52 Este 0 -- -- 61
2019-10-10 15:00:00 25.1 24 Sudeste 48 Sudeste 0 -- -- 65
2019-10-10 14:00:00 25 26 Sudeste 48 Sudeste 0 -- -- 67
2019-10-10 13:00:00 25 26 Sudeste 48 Sudeste 0 -- -- 65
2019-10-10 12:00:00 24.7 24 Sudeste 47 Sudeste 0 -- -- 66
2019-10-10 11:00:00 23.7 19 Sudeste 39 Sudeste 0 -- -- 70
2019-10-10 10:00:00 16.1 0 Calma 4 Noroeste 0 -- -- 88
2019-10-10 09:00:00 12.6 0 Calma 7 Nordeste 0 -- -- 96
2019-10-10 08:00:00 12.3 3 Sur 8 Nordeste 0 -- -- 95
2019-10-10 07:00:00 12.9 3 Nordeste 5 Nordeste 0 -- -- 96
2019-10-10 06:00:00 13.3 3 Nordeste 6 Nordeste 0 -- -- 95
2019-10-10 05:00:00 13.8 2 Nordeste 4 Nordeste 0 -- -- 95
2019-10-10 04:00:00 14 2 Nordeste 6 Este 0 -- -- 93
2019-10-10 03:00:00 14.8 0 Calma 6 Nordeste 0 -- -- 92
2019-10-10 02:00:00 15.3 0 Calma 4 Este 0 -- -- 91
2019-10-10 01:00:00 16 2 Nordeste 6 Nordeste 0 -- -- 88
2019-10-10 00:00:00 16.6 6 Nordeste 10 Nordeste 0 -- -- 87
2019-10-09 23:00:00 17.5 6 Nordeste 8 Nordeste 0 -- -- 84
2019-10-09 22:00:00 19.8 0 Calma 8 Sudeste 0 -- -- 81
2019-10-09 21:00:00 21.2 5 Sudeste 12 Sudeste 0 -- -- 82
2019-10-09 20:00:00 22.8 8 Sudeste 16 Sudeste 0 -- -- 70
2019-10-09 19:00:00 24.8 8 Sudeste 19 Sudeste 0 -- -- 58
2019-10-09 18:00:00 25.6 11 Sudeste 22 Sudeste 0 -- -- 56
2019-10-09 17:00:00 26.3 12 Sudeste 27 Sudeste 0 -- -- 54
2019-10-09 16:00:00 26.9 12 Sudeste 26 Sudeste 0 -- -- 52
2019-10-09 15:00:00 27.6 13 Sudeste 30 Sudeste 0 -- -- 42
2019-10-09 14:00:00 27.3 11 Sudeste 27 Sudeste 0 -- -- 41
2019-10-09 13:00:00 26.7 11 Sudeste 25 Sur 0 -- -- 42
2019-10-09 12:00:00 25.4 8 Sudeste 19 Sudeste 0 -- -- 39
2019-10-09 11:00:00 20.8 3 Noroeste 4 Noroeste 0 -- -- 71
2019-10-09 10:00:00 16.6 0 Calma 4 Oeste 0 -- -- 84
2019-10-09 09:00:00 12.9 2 Nordeste 6 Este 0 -- -- 96
2019-10-09 08:00:00 12.7 3 Nordeste 5 Este 0 -- -- 95
2019-10-09 07:00:00 13 3 Este 8 Nordeste 0 -- -- 94
2019-10-09 06:00:00 13.4 3 Nordeste 5 Nordeste 0 -- -- 93
2019-10-09 05:00:00 14 3 Este 8 Este 0 -- -- 93
2019-10-09 04:00:00 14.8 0 Calma 5 Este 0 -- -- 90
2019-10-09 03:00:00 15.7 4 Norte 9 Norte 0 -- -- 89
2019-10-09 02:00:00 15.6 4 Nordeste 6 Nordeste 0 -- -- 87
2019-10-09 01:00:00 16.5 0 Calma 5 Este 0 -- -- 83
2019-10-09 00:00:00 17.8 3 Nordeste 7 Nordeste 0 -- -- 79
2019-10-08 23:00:00 19.2 3 Nordeste 10 Nordeste 0 -- -- 75
2019-10-08 22:00:00 20.9 3 Sudeste 15 Sur 0 -- -- 69
2019-10-08 21:00:00 22.6 8 Sudeste 22 Sudeste 0 -- -- 63
2019-10-08 20:00:00 23.2 13 Sudeste 31 Sur 0 -- -- 63
2019-10-08 19:00:00 24.3 17 Sudeste 37 Sudeste 0 -- -- 63
2019-10-08 18:00:00 25.9 18 Sudeste 40 Este 0 -- -- 55
2019-10-08 17:00:00 26.5 21 Sudeste 40 Sudeste 0 -- -- 53
2019-10-08 16:00:00 27.1 22 Sudeste 49 Sudeste 0 -- -- 48
2019-10-08 15:00:00 27.3 25 Sudeste 51 Sudeste 0 -- -- 43
2019-10-08 14:00:00 27 24 Sudeste 49 Sudeste 0 -- -- 42
2019-10-08 13:00:00 26.6 23 Sudeste 40 Este 0 -- -- 52
2019-10-08 12:00:00 25.8 18 Sudeste 47 Este 0 -- -- 65
2019-10-08 11:00:00 22.8 4 Noroeste 14 Noroeste 0 -- -- 65
2019-10-08 10:00:00 18.2 0 Calma 5 Noroeste 0 -- -- 72
2019-10-08 09:00:00 14.4 2 Norte 8 Nordeste 0 -- -- 86
2019-10-08 08:00:00 13.9 2 Este 5 Sudeste 0 -- -- 87
2019-10-08 07:00:00 14.2 0 Calma 5 Norte 0 -- -- 83
2019-10-08 06:00:00 14.8 3 Norte 9 Nordeste 0 -- -- 80
2019-10-08 05:00:00 14.9 6 Nordeste 12 Nordeste 0 -- -- 75
2019-10-08 04:00:00 15.5 4 Nordeste 9 Este 0 -- -- 74
2019-10-08 03:00:00 15.7 4 Nordeste 6 Noroeste 0 -- -- 74
2019-10-08 02:00:00 16.4 6 Nordeste 9 Este 0 -- -- 71
2019-10-08 01:00:00 17.9 3 Este 7 Sudeste 0 -- -- 67
2019-10-08 00:00:00 19.3 3 Norte 8 Norte 0 -- -- 64
2019-10-07 23:00:00 20.7 3 Nordeste 6 Nordeste 0 -- -- 62
2019-10-07 22:00:00 22.7 2 Nordeste 6 Nordeste 0 -- -- 59
2019-10-07 21:00:00 26 4 Este 15 Sudoeste 0 -- -- 51
2019-10-07 20:00:00 29.4 6 Sur 17 Sudoeste 0 -- -- 44
2019-10-07 19:00:00 33.2 9 Oeste 18 Oeste 0 -- -- 36
2019-10-07 18:00:00 35 9 Oeste 17 Noroeste 0 -- -- 29
2019-10-07 17:00:00 35.6 9 Sudoeste 24 Sudoeste 0 -- -- 24
2019-10-07 16:00:00 35.4 9 Sur 24 Oeste 0 -- -- 26
2019-10-07 15:00:00 35.2 10 Sur 22 Oeste 0 -- -- 25
2019-10-07 14:00:00 35.2 5 Sudoeste 13 Oeste 0 -- -- 23
2019-10-07 13:00:00 33.1 4 Sudeste 11 Sudeste 0 -- -- 26
2019-10-07 12:00:00 28.8 3 Sudoeste 7 Sudoeste 0 -- -- 34
2019-10-07 11:00:00 23.2 4 Sudoeste 6 Sudoeste 0 -- -- 52
2019-10-07 10:00:00 18.7 0 Calma 5 Este 0 -- -- 67
2019-10-07 09:00:00 13.9 0 Calma 5 Nordeste 0 -- -- 75
2019-10-07 08:00:00 13 4 Nordeste 9 Nordeste 0 -- -- 78
2019-10-07 07:00:00 13.7 3 Nordeste 9 Este 0 -- -- 74
2019-10-07 06:00:00 14.1 4 Este 7 Este 0 -- -- 72
2019-10-07 05:00:00 15 3 Este 8 Este 0 -- -- 69
2019-10-07 04:00:00 15.2 5 Este 10 Este 0 -- -- 71
2019-10-07 03:00:00 15.5 4 Este 8 Este 0 -- -- 71
2019-10-07 02:00:00 16 2 Nordeste 8 Este 0 -- -- 74
2019-10-07 01:00:00 17 6 Este 10 Este 0 -- -- 70
2019-10-07 00:00:00 18.3 5 Este 9 Este 0 -- -- 69
2019-10-06 23:00:00 20.2 4 Este 8 Sudoeste 0 -- -- 64
2019-10-06 22:00:00 21.5 2 Sudeste 9 Nordeste 0 -- -- 63
2019-10-06 21:00:00 25.2 2 Nordeste 27 Oeste 0 -- -- 54
2019-10-06 20:00:00 27.6 12 Oeste 22 Oeste 0 -- -- 49
2019-10-06 19:00:00 30.5 14 Oeste 26 Oeste 0 -- -- 42
2019-10-06 18:00:00 32.3 15 Oeste 27 Oeste 0 -- -- 39
2019-10-06 17:00:00 33 14 Oeste 24 Oeste 0 -- -- 37
2019-10-06 16:00:00 33.6 10 Sudoeste 22 Oeste 0 -- -- 35
2019-10-06 15:00:00 32.7 10 Oeste 22 Sudoeste 0 -- -- 35
2019-10-06 14:00:00 31.9 15 Oeste 27 Oeste 0 -- -- 36
2019-10-06 13:00:00 30.2 6 Sudeste 12 Sudeste 0 -- -- 38
2019-10-06 12:00:00 27.2 3 Oeste 10 Sudoeste 0 -- -- 46
2019-10-06 11:00:00 21.8 0 Calma 5 Noroeste 0 -- -- 62
2019-10-06 10:00:00 16.1 3 Sudoeste 6 Sudoeste 0 -- -- 82
2019-10-06 09:00:00 11.6 2 Este 5 Noroeste 0 -- -- 92
2019-10-06 08:00:00 11.3 2 Norte 8 Nordeste 0 -- -- 92
2019-10-06 07:00:00 11.9 5 Este 8 Nordeste 0 -- -- 90
2019-10-06 06:00:00 12.2 4 Nordeste 8 Nordeste 0 -- -- 90
2019-10-06 05:00:00 13.1 5 Nordeste 8 Nordeste 0 -- -- 87
2019-10-06 04:00:00 13.8 9 Nordeste 11 Nordeste 0 -- -- 86
2019-10-06 03:00:00 14.4 6 Este 9 Este 0 -- -- 85
2019-10-06 02:00:00 15.2 6 Este 10 Nordeste 0 -- -- 83
2019-10-06 01:00:00 16 5 Este 9 Este 0 -- -- 82
2019-10-06 00:00:00 17.1 6 Este 9 Este 0 -- -- 78
2019-10-05 23:00:00 19.1 4 Este 10 Oeste 0 -- -- 72
2019-10-05 22:00:00 22.5 2 Nordeste 17 Oeste 0 -- -- 63
2019-10-05 21:00:00 24 3 Oeste 13 Sudoeste 0 -- -- 59
2019-10-05 20:00:00 26.8 5 Oeste 22 Oeste 0 -- -- 51
2019-10-05 19:00:00 29.5 10 Noroeste 27 Noroeste 0 -- -- 43
2019-10-05 18:00:00 28 17 Oeste 31 Noroeste 0 -- -- 46
2019-10-05 17:00:00 27.9 19 Oeste 36 Oeste 0 -- -- 53
2019-10-05 16:00:00 28.7 19 Oeste 33 Oeste 0 -- -- 50
2019-10-05 15:00:00 28.4 17 Oeste 34 Oeste 0 -- -- 50
2019-10-05 14:00:00 29.6 16 Sudoeste 31 Oeste 0 -- -- 45
2019-10-05 13:00:00 28.6 16 Oeste 27 Noroeste 0 -- -- 51
2019-10-05 12:00:00 27 9 Oeste 21 Oeste 0 -- -- 51
2019-10-05 11:00:00 23 12 Oeste 20 Oeste 0 -- -- 68
2019-10-05 10:00:00 16.9 0 Calma 4 Sur 0 -- -- 82
2019-10-05 09:00:00 12.6 3 Nordeste 5 Este 0 -- -- 93
2019-10-05 08:00:00 11.9 0 Calma 4 Este 0 -- -- 92
2019-10-05 07:00:00 12.3 0 Calma 6 Este 0 -- -- 91
2019-10-05 06:00:00 13 3 Nordeste 7 Nordeste 0 -- -- 90
2019-10-05 05:00:00 13.4 4 Nordeste 9 Nordeste 0 -- -- 89
2019-10-05 04:00:00 14.1 5 Este 10 Este 0 -- -- 87
2019-10-05 03:00:00 14.7 7 Este 9 Nordeste 0 -- -- 84
2019-10-05 02:00:00 15.4 4 Nordeste 9 Nordeste 0 -- -- 80
2019-10-05 01:00:00 16.4 5 Este 9 Este 0 -- -- 76
2019-10-05 00:00:00 17.6 5 Este 10 Nordeste 0 -- -- 71
2019-10-04 23:00:00 18.9 8 Nordeste 10 Nordeste 0 -- -- 67
2019-10-04 22:00:00 21.5 3 Nordeste 12 Noroeste 0 -- -- 59
2019-10-04 21:00:00 25.1 8 Sudoeste 13 Sudoeste 0 -- -- 50
2019-10-04 20:00:00 27.4 4 Sudoeste 13 Sudeste 0 -- -- 44
2019-10-04 19:00:00 29.3 10 Sudeste 24 Sudeste 0 -- -- 37
2019-10-04 18:00:00 30.1 14 Sudeste 26 Sudeste 0 -- -- 35
2019-10-04 17:00:00 30.9 17 Sudeste 31 Sudeste 0 -- -- 35
2019-10-04 16:00:00 30.9 14 Sudeste 30 Sudeste 0 -- -- 35
2019-10-04 15:00:00 31.5 10 Sudeste 21 Sudeste 0 -- -- 33
2019-10-04 14:00:00 31.4 8 Sudeste 19 Sudeste 0 -- -- 33
2019-10-04 13:00:00 29.2 7 Sudeste 14 Sur 0 -- -- 33
2019-10-04 12:00:00 25.8 3 Noroeste 6 Oeste 0 -- -- 44
2019-10-04 11:00:00 21.2 3 Noroeste 5 Noroeste 0 -- -- 53
2019-10-04 10:00:00 16.8 0 Calma 4 Sudeste 0 -- -- 73
2019-10-04 09:00:00 12.2 3 Este 6 Este 0 -- -- 79
2019-10-04 08:00:00 11.7 0 Calma 9 Este 0 -- -- 84
2019-10-04 07:00:00 12.5 2 Este 10 Este 0 -- -- 78
2019-10-04 06:00:00 13 5 Este 10 Este 0 -- -- 75
2019-10-04 05:00:00 13.2 3 Norte 9 Este 0 -- -- 77
2019-10-04 04:00:00 13.2 3 Sudeste 7 Este 0 -- -- 76
2019-10-04 03:00:00 13.1 3 Norte 9 Nordeste 0 -- -- 77
2019-10-04 02:00:00 13.5 7 Este 10 Nordeste 0 -- -- 74
2019-10-04 01:00:00 14.6 6 Este 9 Nordeste 0 -- -- 71
2019-10-04 00:00:00 16 6 Este 8 Este 0 -- -- 66
2019-10-03 23:00:00 19.7 3 Sur 22 Oeste 0 -- -- 56
2019-10-03 22:00:00 21.1 5 Oeste 14 Noroeste 0 -- -- 49
2019-10-03 21:00:00 22.2 8 Oeste 14 Noroeste 0 -- -- 46
2019-10-03 20:00:00 24.2 5 Noroeste 28 Oeste 0 -- -- 43
2019-10-03 19:00:00 26.5 16 Oeste 35 Oeste 0 -- -- 39
2019-10-03 18:00:00 27.9 19 Oeste 36 Oeste 0 -- -- 39
2019-10-03 17:00:00 28.5 20 Oeste 37 Oeste 0 -- -- 44
2019-10-03 16:00:00 28.4 22 Oeste 39 Sudoeste 0 -- -- 45
2019-10-03 15:00:00 28.3 19 Oeste 38 Oeste 0 -- -- 47
2019-10-03 14:00:00 28 18 Oeste 30 Oeste 0 -- -- 47
2019-10-03 13:00:00 26.2 19 Oeste 33 Oeste 0 -- -- 53
2019-10-03 12:00:00 24.5 20 Sudoeste 30 Sudoeste 0 -- -- 59
2019-10-03 11:00:00 22.3 20 Oeste 36 Oeste 0 -- -- 68
2019-10-03 10:00:00 19.8 12 Oeste 27 Oeste 0 -- -- 77
2019-10-03 09:00:00 13 4 Norte 12 Noroeste 0 -- -- 80
2019-10-03 08:00:00 11.9 8 Este 11 Nordeste 0 -- -- 84
2019-10-03 07:00:00 13 6 Nordeste 11 Nordeste 0 -- -- 81
2019-10-03 06:00:00 12.7 4 Nordeste 11 Norte 0 -- -- 84
2019-10-03 05:00:00 14.1 4 Nordeste 15 Oeste 0 -- -- 79
2019-10-03 04:00:00 14.9 8 Noroeste 19 Noroeste 0 -- -- 80
2019-10-03 03:00:00 14.5 5 Este 8 Norte 0 -- -- 81
2019-10-03 02:00:00 17.1 4 Noroeste 12 Oeste 0 -- -- 73
2019-10-03 01:00:00 18.1 3 Nordeste 19 Oeste 0 -- -- 72
2019-10-03 00:00:00 18.9 7 Oeste 21 Sudoeste 0 -- -- 71
2019-10-02 23:00:00 19.4 9 Sudoeste 17 Oeste 0 -- -- 66
2019-10-02 22:00:00 20.7 4 Oeste 28 Noroeste 0 -- -- 59
2019-10-02 21:00:00 21.6 15 Noroeste 32 Oeste 0 -- -- 55
2019-10-02 20:00:00 22.9 14 Noroeste 31 Oeste 0 -- -- 48
2019-10-02 19:00:00 25 19 Oeste 35 Oeste 0 -- -- 40
2019-10-02 18:00:00 26.5 24 Oeste 36 Oeste 0 -- -- 39
2019-10-02 17:00:00 27.3 24 Oeste 43 Oeste 0 -- -- 32
2019-10-02 16:00:00 27.5 25 Oeste 42 Oeste 0 -- -- 30
2019-10-02 15:00:00 27.5 24 Oeste 39 Oeste 0 -- -- 34
2019-10-02 14:00:00 26.9 19 Oeste 40 Oeste 0 -- -- 46
2019-10-02 13:00:00 26 26 Oeste 42 Oeste 0 -- -- 44
2019-10-02 12:00:00 25.1 19 Oeste 33 Oeste 0 -- -- 50
2019-10-02 11:00:00 23.5 17 Oeste 26 Oeste 0 -- -- 55
2019-10-02 10:00:00 20.6 2 Oeste 9 Este 0 -- -- 66
2019-10-02 09:00:00 14.6 5 Este 9 Nordeste 0 -- -- 83
2019-10-02 08:00:00 14.8 6 Este 10 Este 0 -- -- 82
2019-10-02 07:00:00 16.4 3 Este 10 Este 0 -- -- 77
2019-10-02 06:00:00 18.7 2 Sudeste 13 Nordeste 0 -- -- 70
2019-10-02 05:00:00 21.2 6 Norte 22 Norte 0 -- -- 61
2019-10-02 04:00:00 21.6 13 Noroeste 22 Norte 0 -- -- 61
2019-10-02 03:00:00 20.4 3 Noroeste 16 Noroeste 0 -- -- 72
2019-10-02 02:00:00 20.8 6 Noroeste 18 Noroeste 0 -- -- 71
2019-10-02 01:00:00 20.6 5 Noroeste 11 Noroeste 0 -- -- 71
2019-10-02 00:00:00 21.4 4 Noroeste 14 Norte 0 -- -- 68
2019-10-01 23:00:00 21.8 2 Nordeste 18 Noroeste 0 -- -- 66
2019-10-01 22:00:00 23.5 6 Noroeste 19 Noroeste 0 -- -- 60
2019-10-01 21:00:00 24.7 8 Oeste 31 Noroeste 0 -- -- 57
2019-10-01 20:00:00 26.1 13 Noroeste 33 Oeste 0 -- -- 52
2019-10-01 19:00:00 28.3 21 Oeste 41 Oeste 0 -- -- 47
2019-10-01 18:00:00 30.9 20 Oeste 33 Oeste 0 -- -- 40
2019-10-01 17:00:00 31.6 15 Noroeste 39 Oeste 0 -- -- 28
2019-10-01 16:00:00 31.7 19 Oeste 40 Noroeste 0 -- -- 29
2019-10-01 15:00:00 31.3 21 Noroeste 41 Oeste 0 -- -- 25
2019-10-01 14:00:00 30.9 21 Oeste 35 Oeste 0 -- -- 26
2019-10-01 13:00:00 30.4 17 Noroeste 36 Norte 0 -- -- 23
2019-10-01 12:00:00 27.5 9 Noroeste 22 Norte 0 -- -- 33
2019-10-01 11:00:00 20.2 0 Calma 4 Noroeste 0 -- -- 73
2019-10-01 10:00:00 14.5 0 Calma 4 Noroeste 0 -- -- 87
2019-10-01 09:00:00 12.3 0 Calma 6 Norte 0 -- -- 90
2019-10-01 08:00:00 12.1 3 Este 8 Este 0 -- -- 87
2019-10-01 07:00:00 12 3 Norte 6 Nordeste 0 -- -- 90
2019-10-01 06:00:00 12.5 2 Nordeste 6 Nordeste 0 -- -- 85
2019-10-01 05:00:00 13.3 4 Este 10 Nordeste 0 -- -- 82
2019-10-01 04:00:00 13.7 4 Nordeste 8 Nordeste 0 -- -- 82
2019-10-01 03:00:00 14.2 4 Este 6 Nordeste 0 -- -- 78
2019-10-01 02:00:00 15 3 Nordeste 8 Nordeste 0 -- -- 75
2019-10-01 01:00:00 15.8 2 Norte 8 Nordeste 0 -- -- 73
2019-10-01 00:00:00 17.1 2 Nordeste 9 Este 0 -- -- 67
2019-09-30 23:00:00 18.5 3 Este 9 Nordeste 0 -- -- 61
2019-09-30 22:00:00 20 3 Nordeste 5 Este 0 -- -- 57
2019-09-30 21:00:00 22.8 4 Este 8 Sudoeste 0 -- -- 48
2019-09-30 20:00:00 27.8 5 Sur 12 Sudeste 0 -- -- 37
2019-09-30 19:00:00 31.4 6 Sudeste 17 Sudeste 0 -- -- 30
2019-09-30 18:00:00 31.2 12 Sudeste 21 Sudeste 0 -- -- 28
2019-09-30 17:00:00 32.5 14 Sudeste 24 Sudeste 0 -- -- 29
2019-09-30 16:00:00 32.9 14 Sudeste 24 Sur 0 -- -- 33
2019-09-30 15:00:00 33.2 13 Sudeste 22 Sur 0 -- -- 30
2019-09-30 14:00:00 32.7 4 Nordeste 12 Sur 0 -- -- 28
2019-09-30 13:00:00 30.3 4 Sudoeste 8 Sudoeste 0 -- -- 32
2019-09-30 12:00:00 25.2 3 Noroeste 5 Noroeste 0 -- -- 54
2019-09-30 11:00:00 21.1 3 Noroeste 5 Oeste 0 -- -- 68
2019-09-30 10:00:00 17.3 0 Calma 3 Este 0 -- -- 84
2019-09-30 09:00:00 12.5 0 Calma 6 Este 0 -- -- 98
2019-09-30 08:00:00 11.9 0 Calma 8 Nordeste 0 -- -- 96
2019-09-30 07:00:00 12.5 2 Este 8 Nordeste 0 -- -- 97
2019-09-30 06:00:00 12.9 3 Nordeste 8 Nordeste 0 -- -- 96
2019-09-30 05:00:00 13.4 0 Calma 7 Nordeste 0 -- -- 95
2019-09-30 04:00:00 13.9 2 Nordeste 6 Este 0 -- -- 94
2019-09-30 03:00:00 14.4 4 Nordeste 6 Nordeste 0 -- -- 94
2019-09-30 02:00:00 15.6 0 Calma 6 Nordeste 0 -- -- 93
2019-09-30 01:00:00 16.3 4 Este 8 Nordeste 0 -- -- 92
2019-09-30 00:00:00 17.1 4 Nordeste 5 Nordeste 0 -- -- 89
2019-09-29 23:00:00 18.3 4 Nordeste 6 Nordeste 0 -- -- 86
2019-09-29 22:00:00 20.7 0 Calma 5 Nordeste 0 -- -- 79
2019-09-29 21:00:00 22.8 3 Nordeste 10 Sudeste 0 -- -- 74
2019-09-29 20:00:00 25.5 6 Sudeste 13 Sudeste 0 -- -- 65
2019-09-29 19:00:00 27.4 7 Sudeste 18 Sudeste 0 -- -- 58
2019-09-29 18:00:00 28.2 8 Sudeste 19 Sudeste 0 -- -- 55
2019-09-29 17:00:00 28.5 10 Sudeste 22 Sur 0 -- -- 55
2019-09-29 16:00:00 28.9 12 Sudeste 22 Sur 0 -- -- 53
2019-09-29 15:00:00 28.6 10 Sur 22 Sudeste 0 -- -- 53
2019-09-29 14:00:00 27.6 10 Sudeste 22 Sudeste 0 -- -- 58
2019-09-29 13:00:00 26.2 9 Sur 21 Sur 0 -- -- 66
2019-09-29 12:00:00 24.2 5 Noroeste 9 Noroeste 0 -- -- 74
2019-09-29 11:00:00 21.6 3 Noroeste 5 Oeste 0 -- -- 80
2019-09-29 10:00:00 17.5 3 Noroeste 6 Norte 0 -- -- 91
2019-09-29 09:00:00 15.2 0 Calma 3 Norte 0 -- -- 96
2019-09-29 08:00:00 15.4 2 Este 3 Este 0 -- -- 94
2019-09-29 07:00:00 16.7 3 Norte 4 Noroeste 0 -- -- 92
2019-09-29 06:00:00 16.5 2 Este 5 Este 0 -- -- 95
2019-09-29 05:00:00 16.6 2 Sudeste 3 Nordeste 0 -- -- 92
2019-09-29 04:00:00 17.8 0 Calma 4 Noroeste 0 -- -- 91
2019-09-29 03:00:00 18.3 3 Norte 9 Nordeste 0 -- -- 92
2019-09-29 02:00:00 17.1 5 Nordeste 8 Nordeste 0 -- -- 93
2019-09-29 01:00:00 16.4 3 Este 5 Nordeste 0 -- -- 91
2019-09-29 00:00:00 17.3 3 Nordeste 6 Nordeste 0 -- -- 88
2019-09-28 23:00:00 18.7 4 Este 6 Nordeste 0 -- -- 85
2019-09-28 22:00:00 20.3 2 Noroeste 10 Sur 0 -- -- 83
2019-09-28 21:00:00 22 4 Sur 14 Sudeste 0 -- -- 75
2019-09-28 20:00:00 24.5 8 Sudeste 15 Sur 0 -- -- 67
2019-09-28 19:00:00 27.9 6 Sur 15 Sudeste 0 -- -- 55
2019-09-28 18:00:00 28.8 12 Sur 19 Sur 0 -- -- 52
2019-09-28 17:00:00 29.4 10 Sur 25 Sudeste 0 -- -- 50
2019-09-28 16:00:00 30.6 12 Sudeste 23 Sudeste 0 -- -- 45
2019-09-28 15:00:00 30.1 10 Sudeste 23 Sudeste 0 -- -- 47
2019-09-28 14:00:00 29.3 10 Sudeste 20 Sudoeste 0 -- -- 49
2019-09-28 13:00:00 27.6 6 Sudeste 14 Sudeste 0 -- -- 54
2019-09-28 12:00:00 25.3 6 Sudeste 13 Sur 0 -- -- 56
2019-09-28 11:00:00 21.2 4 Sudoeste 8 Sudoeste 0 -- -- 67
2019-09-28 10:00:00 16.5 0 Calma 4 Nordeste 0 -- -- 88
2019-09-28 09:00:00 13.3 3 Nordeste 5 Este 0 -- -- 95
2019-09-28 08:00:00 12.7 2 Sudeste 6 Este 0 -- -- 95
2019-09-28 07:00:00 13.6 3 Nordeste 9 Noroeste 0 -- -- 96
2019-09-28 06:00:00 13.6 5 Sur 7 Sur 0 -- -- 95
2019-09-28 05:00:00 14.4 0 Calma 6 Nordeste 0 -- -- 95
2019-09-28 04:00:00 14.7 3 Este 5 Este 0 -- -- 93
2019-09-28 03:00:00 15.4 3 Nordeste 5 Este 0 -- -- 93
2019-09-28 02:00:00 16.1 2 Norte 6 Nordeste 0 -- -- 91
2019-09-28 01:00:00 16.8 3 Nordeste 8 Nordeste 0 -- -- 89
2019-09-28 00:00:00 17.6 3 Nordeste 5 Este 0 -- -- 87
2019-09-27 23:00:00 18.3 5 Nordeste 7 Nordeste 0 -- -- 84
2019-09-27 22:00:00 20.2 0 Calma -- -- 0 -- -- 80
2019-09-27 21:00:00 22.5 0 Calma 14 Este 0 -- -- 75
2019-09-27 20:00:00 25.1 8 Sudeste 19 Sudeste 0 -- -- 65
2019-09-27 19:00:00 27.6 10 Sudeste 23 Este 0 -- -- 55
2019-09-27 18:00:00 29.6 14 Sudeste 26 Sudeste 0 -- -- 47
2019-09-27 17:00:00 30.6 14 Sudeste 24 Sudeste 0 -- -- 45
2019-09-27 16:00:00 30.9 11 Sudeste 21 Sudeste 0 -- -- 43
2019-09-27 15:00:00 30.6 8 Sur 15 Sur 0 -- -- 43
2019-09-27 14:00:00 29.5 5 Sur 16 Sudeste 0 -- -- 52
2019-09-27 13:00:00 27.5 6 Sur 15 Sur 0 -- -- 60
2019-09-27 12:00:00 24.7 4 Noroeste 8 Noroeste 0 -- -- 66
2019-09-27 11:00:00 21.6 0 Calma 8 Sudeste 0 -- -- 80
2019-09-27 10:00:00 18.8 3 Noroeste 7 Norte 0 -- -- 81
2019-09-27 09:00:00 17.8 2 Norte 5 Nordeste 0 -- -- 90
2019-09-27 08:00:00 17 3 Nordeste 8 Nordeste 0 -- -- 91
2019-09-27 07:00:00 17.7 5 Norte 9 Norte 0 -- -- 87
2019-09-27 06:00:00 17.9 3 Norte 6 Nordeste 0 -- -- 91
2019-09-27 05:00:00 17.6 0 Calma 4 Norte 0 -- -- 91
2019-09-27 04:00:00 17.4 0 Calma 5 Nordeste 0 -- -- 93
2019-09-27 03:00:00 16.8 0 Calma 5 Nordeste 0 -- -- 94
2019-09-27 02:00:00 16.9 3 Nordeste 4 Nordeste 0 -- -- 92
2019-09-27 01:00:00 17.7 4 Este 6 Este 0 -- -- 90
2019-09-27 00:00:00 18.8 2 Este 7 Nordeste 0 -- -- 87
2019-09-26 23:00:00 19.3 6 Nordeste 7 Nordeste 0 -- -- 87
2019-09-26 22:00:00 20.8 2 Este 5 Este 0 -- -- 83
2019-09-26 21:00:00 23.1 3 Sur 9 Sudeste 0 -- -- 77
2019-09-26 20:00:00 25.1 6 Sur 17 Sudeste 0 -- -- 69
2019-09-26 19:00:00 26.9 12 Sudeste 21 Sudeste 0 -- -- 61
2019-09-26 18:00:00 28 12 Sudeste 23 Sudeste 0 -- -- 59
2019-09-26 17:00:00 28.9 13 Sudeste 27 Sudeste 0 -- -- 55
2019-09-26 16:00:00 29.1 12 Sudeste 23 Sur 0 -- -- 55
2019-09-26 15:00:00 28.5 13 Sudeste 26 Sudeste 0 -- -- 57
2019-09-26 14:00:00 28.3 12 Sur 27 Sur 0 -- -- 58
2019-09-26 13:00:00 27.7 10 Sur 23 Este 0 -- -- 60
2019-09-26 12:00:00 25.1 4 Noroeste 7 Oeste 0 -- -- 56
2019-09-26 11:00:00 21.8 3 Noroeste 5 Noroeste 0 -- -- 58
2019-09-26 10:00:00 16.9 3 Noroeste 4 Noroeste 0 -- -- 70
2019-09-26 09:00:00 13 3 Nordeste 5 Nordeste 0 -- -- 82
2019-09-26 08:00:00 11.6 2 Nordeste 8 Nordeste 0 -- -- 85
2019-09-26 07:00:00 12 7 Nordeste 9 Nordeste 0 -- -- 83
2019-09-26 06:00:00 13 3 Nordeste 7 Nordeste 0 -- -- 79
2019-09-26 05:00:00 13.7 5 Nordeste 9 Nordeste 0 -- -- 76
2019-09-26 04:00:00 14.7 4 Nordeste 10 Nordeste 0 -- -- 73
2019-09-26 03:00:00 15.3 7 Nordeste 10 Nordeste 0 -- -- 72
2019-09-26 02:00:00 16.1 9 Nordeste 12 Nordeste 0 -- -- 70
2019-09-26 01:00:00 17.2 8 Este 10 Este 0 -- -- 70
2019-09-26 00:00:00 19.5 5 Sudeste 10 Noroeste 0 -- -- 63
2019-09-25 23:00:00 21.9 4 Oeste 10 Oeste 0 -- -- 56
2019-09-25 22:00:00 23.2 4 Norte 13 Noroeste 0 -- -- 54
2019-09-25 21:00:00 26 8 Noroeste 21 Noroeste 0 -- -- 47
2019-09-25 20:00:00 28.2 14 Noroeste 26 Noroeste 0 -- -- 39
2019-09-25 19:00:00 30.4 15 Noroeste 30 Noroeste 0 -- -- 33
2019-09-25 18:00:00 31.4 17 Noroeste 36 Noroeste 0 -- -- 32
2019-09-25 17:00:00 31.9 16 Noroeste 32 Oeste 0 -- -- 31
2019-09-25 16:00:00 32.2 17 Noroeste 37 Oeste 0 -- -- 32
2019-09-25 15:00:00 31.9 15 Noroeste 28 Noroeste 0 -- -- 33
2019-09-25 14:00:00 31 17 Noroeste 30 Noroeste 0 -- -- 34
2019-09-25 13:00:00 29.9 14 Noroeste 31 Noroeste 0 -- -- 34
2019-09-25 12:00:00 28.5 19 Noroeste 30 Noroeste 0 -- -- 45
2019-09-25 11:00:00 26.7 7 Oeste 17 Sudoeste 0 -- -- 55
2019-09-25 10:00:00 23.6 5 Sudoeste 9 Oeste 0 -- -- 66
2019-09-25 09:00:00 18.4 2 Este 8 Nordeste 0 -- -- 80
2019-09-25 08:00:00 17.5 5 Este 9 Este 0 -- -- 81
2019-09-25 07:00:00 18.6 0 Calma 11 Noroeste 0 -- -- 77
2019-09-25 06:00:00 19.2 5 Noroeste 10 Noroeste 0 -- -- 73
2019-09-25 05:00:00 19.1 4 Este 12 Noroeste 0 -- -- 72
2019-09-25 04:00:00 20.8 5 Noroeste 13 Norte 0 -- -- 66
2019-09-25 03:00:00 19.4 3 Oeste 10 Nordeste 0 -- -- 67
2019-09-25 02:00:00 22.1 8 Oeste 15 Oeste 0 -- -- 57
2019-09-25 01:00:00 21.3 2 Este 8 Noroeste 0 -- -- 57
2019-09-25 00:00:00 23.6 5 Noroeste 14 Oeste 0 -- -- 48
2019-09-24 23:00:00 23.6 4 Oeste 13 Noroeste 0 -- -- 50
2019-09-24 22:00:00 24 8 Norte 19 Noroeste 0 -- -- 49
2019-09-24 21:00:00 26.6 3 Noroeste 23 Oeste 0 -- -- 46
2019-09-24 20:00:00 29.4 12 Oeste 26 Oeste 0 -- -- 41
2019-09-24 19:00:00 32.1 10 Oeste 26 Oeste 0 -- -- 34
2019-09-24 18:00:00 32.4 11 Sudeste 22 Sudeste 0 -- -- 34
2019-09-24 17:00:00 32.2 13 Sudeste 24 Sudeste 0 -- -- 33
2019-09-24 16:00:00 31.8 17 Sudeste 31 Sudeste 0 -- -- 33
2019-09-24 15:00:00 32.4 13 Sudeste 27 Sur 0 -- -- 35
2019-09-24 14:00:00 32.4 8 Sudoeste 15 Sudoeste 0 -- -- 31
2019-09-24 13:00:00 29.6 4 Sur 9 Sudeste 0 -- -- 39
2019-09-24 12:00:00 25.5 4 Oeste 6 Noroeste 0 -- -- 48
2019-09-24 11:00:00 20.8 2 Noroeste 4 Noroeste 0 -- -- 64
2019-09-24 10:00:00 16.8 2 Sudoeste 4 Sudoeste 0 -- -- 77
2019-09-24 09:00:00 12.5 0 Calma 5 Este 0 -- -- 91
2019-09-24 08:00:00 11.1 2 Nordeste 6 Nordeste 0 -- -- 93
2019-09-24 07:00:00 11.5 3 Este 6 Nordeste 0 -- -- 91
2019-09-24 06:00:00 12 3 Este 6 Este 0 -- -- 90
2019-09-24 05:00:00 12.5 4 Nordeste 6 Nordeste 0 -- -- 88
2019-09-24 04:00:00 13.2 3 Nordeste 6 Nordeste 0 -- -- 86
2019-09-24 03:00:00 13.8 0 Calma 7 Nordeste 0 -- -- 85
2019-09-24 02:00:00 14.5 3 Este 7 Nordeste 0 -- -- 81
2019-09-24 01:00:00 15.5 4 Este 6 Este 0 -- -- 78
2019-09-24 00:00:00 16.5 3 Nordeste 7 Nordeste 0 -- -- 73
2019-09-23 23:00:00 17.8 4 Este 6 Este 0 -- -- 68
2019-09-23 22:00:00 19.2 5 Nordeste 8 Nordeste 0 -- -- 63
2019-09-23 21:00:00 22.4 3 Nordeste 11 Sudeste 0 -- -- 53
2019-09-23 20:00:00 25.7 8 Sudeste 18 Sudeste 0 -- -- 42
2019-09-23 19:00:00 27.4 10 Sudeste 21 Sudeste 0 -- -- 38
2019-09-23 18:00:00 28.5 14 Sudeste 26 Sudeste 0 -- -- 36
2019-09-23 17:00:00 29.7 15 Sudeste 27 Sudeste 0 -- -- 33
2019-09-23 16:00:00 30.5 11 Sudeste 28 Sudeste 0 -- -- 31
2019-09-23 15:00:00 30.6 12 Sudeste 21 Sudeste 0 -- -- 30
2019-09-23 14:00:00 30.2 7 Sur 19 Sudoeste 0 -- -- 32
2019-09-23 13:00:00 28.3 7 Oeste 15 Sur 0 -- -- 35
2019-09-23 12:00:00 27 5 Sudoeste 10 Sudoeste 0 -- -- 45
2019-09-23 11:00:00 23.1 3 Oeste 6 Oeste 0 -- -- 58
2019-09-23 10:00:00 19.2 0 Calma 7 Nordeste 0 -- -- 73
2019-09-23 09:00:00 13.7 5 Este 9 Nordeste 0 -- -- 90
2019-09-23 08:00:00 12.6 3 Nordeste 11 Nordeste 0 -- -- 92
2019-09-23 07:00:00 13.2 5 Este 9 Este 0 -- -- 91
2019-09-23 06:00:00 14.2 4 Este 7 Este 0 -- -- 88
2019-09-23 05:00:00 15.3 0 Calma 6 Oeste 0 -- -- 87
2019-09-23 04:00:00 17.5 0 Calma 13 Noroeste 0 -- -- 82
2019-09-23 03:00:00 18.3 7 Noroeste 11 Noroeste 0 -- -- 81
2019-09-23 02:00:00 18.4 4 Noroeste 11 Noroeste 0 -- -- 81
2019-09-23 01:00:00 19.4 4 Noroeste 12 Oeste 0 -- -- 79
2019-09-23 00:00:00 20.3 4 Oeste 21 Norte 0 -- -- 75
2019-09-22 23:00:00 20.8 6 Norte 21 Noroeste 0 -- -- 73
2019-09-22 22:00:00 21.5 5 Noroeste 19 Oeste 0 -- -- 70
2019-09-22 21:00:00 22.9 9 Noroeste 21 Oeste 0 -- -- 63
2019-09-22 20:00:00 24.1 10 Noroeste 26 Oeste 0 -- -- 55
2019-09-22 19:00:00 25.2 15 Noroeste 27 Oeste 0 -- -- 51
2019-09-22 18:00:00 26.6 14 Noroeste 32 Oeste 0 -- -- 40
2019-09-22 17:00:00 26.8 14 Oeste 33 Noroeste 0 -- -- 41
2019-09-22 16:00:00 26.4 16 Oeste 37 Sudoeste 0 -- -- 46
2019-09-22 15:00:00 26.8 17 Oeste 33 Noroeste 0 -- -- 55
2019-09-22 14:00:00 24.9 19 Oeste 30 Oeste 0 -- -- 62
2019-09-22 13:00:00 23.8 3 Sudoeste 15 Sudoeste 0 -- -- 74
2019-09-22 12:00:00 22.3 5 Noroeste 9 Noroeste 0 -- -- 84
2019-09-22 11:00:00 21 4 Noroeste 9 Noroeste 0 -- -- 84
2019-09-22 10:00:00 20.4 4 Noroeste 5 Noroeste 0 -- -- 86
2019-09-22 09:00:00 18.8 2 Norte 3 Norte 0 -- -- 91
2019-09-22 08:00:00 17.9 0 Calma 4 Este 0 -- -- 91
2019-09-22 07:00:00 17.2 2 Este 6 Nordeste 0 -- -- 92
2019-09-22 06:00:00 17.3 3 Nordeste 6 Nordeste 0 -- -- 90
2019-09-22 05:00:00 17.6 0 Calma 7 Nordeste 0 -- -- 90
2019-09-22 04:00:00 18 4 Nordeste 10 Nordeste 0 -- -- 88
2019-09-22 03:00:00 18.4 3 Este 6 Este 0 -- -- 87
2019-09-22 02:00:00 20.3 0 Calma 18 Oeste 0 -- -- 79
2019-09-22 01:00:00 21.4 8 Oeste 20 Oeste 0 -- -- 71
2019-09-22 00:00:00 21.2 5 Sudoeste 11 Sur 0 -- -- 76
2019-09-21 23:00:00 21.2 2 Sudeste 6 Oeste 0 -- -- 77
2019-09-21 22:00:00 22.5 0 Calma 12 Oeste 0 -- -- 73
2019-09-21 21:00:00 23.4 6 Oeste 26 Oeste 0 -- -- 69
2019-09-21 20:00:00 24.5 13 Oeste 29 Oeste 0 -- -- 65
2019-09-21 19:00:00 26.4 12 Sudeste 21 Sudeste 0 -- -- 50
2019-09-21 18:00:00 27.9 13 Sudeste 25 Sudeste 0 -- -- 48
2019-09-21 17:00:00 28.8 14 Sudeste 28 Sudeste 0 -- -- 48
2019-09-21 16:00:00 29 7 Sudoeste 19 Sudeste 0 -- -- 46
2019-09-21 15:00:00 27.8 6 Noroeste 12 Noroeste 0 -- -- 54
2019-09-21 14:00:00 26.7 2 Nordeste 10 Sudoeste 0 -- -- 53
2019-09-21 13:00:00 25.5 4 Este 15 Sudeste 0 -- -- 65
2019-09-21 12:00:00 23.5 4 Noroeste 8 Este 0 -- -- 78
2019-09-21 11:00:00 22.2 4 Este 6 Este 0 -- -- 82
2019-09-21 10:00:00 21.2 2 Sudoeste 5 Sudoeste 0 -- -- 89
2019-09-21 09:00:00 20.3 0 Calma 5 Este 0 -- -- 92
2019-09-21 08:00:00 20.1 3 Sudoeste 6 Sudeste 0 -- -- 90
2019-09-21 07:00:00 20.5 3 Sur 8 Sudoeste 0 -- -- 89
2019-09-21 06:00:00 20.9 0 Calma 4 Oeste 0 -- -- 93
2019-09-21 05:00:00 21.1 2 Sur 4 Sur 0 -- -- 95
2019-09-21 04:00:00 21.1 2 Este 5 Este 0 -- -- 96
2019-09-21 03:00:00 21.5 0 Calma 4 Sudoeste 0 -- -- 94
2019-09-21 02:00:00 21.9 2 Sur 5 Sur 0 -- -- 93
2019-09-21 01:00:00 21.9 0 Calma 3 Sudeste 0 -- -- 93
2019-09-21 00:00:00 22.2 2 Sudeste 7 Sur 0 -- -- 92
2019-09-20 23:00:00 22.4 3 Sur 13 Sudeste 0 -- -- 91
2019-09-20 22:00:00 22.7 3 Sudeste 14 Sudeste 0 -- -- 90
2019-09-20 21:00:00 23.2 5 Sudeste 13 Este 0 -- -- 87
2019-09-20 20:00:00 23.7 8 Sudeste 22 Sudeste 0 -- -- 84
2019-09-20 19:00:00 24.2 12 Sudeste 27 Este 0 -- -- 82
2019-09-20 18:00:00 24.5 15 Sudeste 29 Este 0 -- -- 81
2019-09-20 17:00:00 24.7 15 Sudeste 35 Sudeste 0 -- -- 80
2019-09-20 16:00:00 25 18 Sudeste 33 Este 0 -- -- 79
2019-09-20 15:00:00 25.2 18 Sudeste 33 Este 0 -- -- 79
2019-09-20 14:00:00 25.1 11 Sudeste 27 Sudeste 0 -- -- 77
2019-09-20 13:00:00 25 13 Sudeste 28 Sudeste 0 -- -- 75
2019-09-20 12:00:00 24.8 13 Sudeste 27 Sur 0 -- -- 75
2019-09-20 11:00:00 24.1 13 Sudeste 27 Sudeste 0 -- -- 77
2019-09-20 10:00:00 20.5 3 Oeste 9 Noroeste 0 -- -- 90
2019-09-20 09:00:00 19 0 Calma 6 Noroeste 0 -- -- 92
2019-09-20 08:00:00 18.6 3 Este 7 Noroeste 0 -- -- 93
2019-09-20 07:00:00 18.3 2 Noroeste 7 Norte 0 -- -- 94
2019-09-20 06:00:00 17.7 3 Nordeste 6 Sudeste 0 -- -- 93
2019-09-20 05:00:00 17.4 0 Calma 5 Nordeste 0 -- -- 93
2019-09-20 04:00:00 17.6 3 Nordeste 6 Este 0 -- -- 93
2019-09-20 03:00:00 18.2 0 Calma 3 Sudeste 0 -- -- 90
2019-09-20 02:00:00 19 0 Calma 6 Este 0 -- -- 86
2019-09-20 01:00:00 19.2 0 Calma 6 Noroeste 0 -- -- 86
2019-09-20 00:00:00 19.2 0 Calma 5 Este 0 -- -- 85
2019-09-19 23:00:00 19.9 3 Nordeste 5 Nordeste 0 -- -- 82
2019-09-19 22:00:00 21.3 3 Este 9 Noroeste 0 -- -- 76
2019-09-19 21:00:00 23.3 0 Calma 9 Sudeste 0 -- -- 67
2019-09-19 20:00:00 25.1 5 Sudeste 17 Sur 0 -- -- 61
2019-09-19 19:00:00 27 9 Sur 24 Sudeste 0 -- -- 55
2019-09-19 18:00:00 28.1 15 Sudeste 29 Sudeste 0 -- -- 51
2019-09-19 17:00:00 29.2 15 Sudeste 31 Sudeste 0 -- -- 48
2019-09-19 16:00:00 30.6 15 Sudeste 26 Sudeste 0 -- -- 40
2019-09-19 15:00:00 31 10 Sudeste 23 Sudeste 0 -- -- 41
2019-09-19 14:00:00 30.5 8 Sudeste 17 Este 0 -- -- 35
2019-09-19 13:00:00 29 5 Sudeste 13 Sudeste 0 -- -- 41
2019-09-19 12:00:00 25.9 4 Sudoeste 7 Sudoeste 0 -- -- 56
2019-09-19 11:00:00 21.7 0 Calma 5 Noroeste 0 -- -- 73
2019-09-19 10:00:00 18 0 Calma 2 Oeste 0 -- -- 85
2019-09-19 09:00:00 15 0 Calma 7 Este 0 -- -- 96
2019-09-19 08:00:00 14.1 5 Este 6 Nordeste 0 -- -- 96
2019-09-19 07:00:00 14.7 0 Calma 8 Nordeste 0 -- -- 96
2019-09-19 06:00:00 15 4 Este 8 Nordeste 0 -- -- 95
2019-09-19 05:00:00 15.5 0 Calma 10 Nordeste 0 -- -- 93
2019-09-19 04:00:00 15.7 3 Este 8 Nordeste 0 -- -- 93
2019-09-19 03:00:00 16.2 6 Este 8 Nordeste 0 -- -- 92
2019-09-19 02:00:00 16.8 6 Nordeste 8 Nordeste 0 -- -- 90
2019-09-19 01:00:00 17.7 5 Este 8 Nordeste 0 -- -- 87
2019-09-19 00:00:00 19 4 Este 7 Este 0 -- -- 82
2019-09-18 23:00:00 21 4 Este 10 Noroeste 0 -- -- 74
2019-09-18 22:00:00 23.7 5 Noroeste 18 Oeste 0 -- -- 61
2019-09-18 21:00:00 24.9 9 Oeste 18 Noroeste 0 -- -- 58
2019-09-18 20:00:00 27.5 7 Oeste 21 Oeste 0 -- -- 52
2019-09-18 19:00:00 29.3 13 Oeste 22 Oeste 0 -- -- 47
2019-09-18 18:00:00 30.5 14 Oeste 24 Sudoeste 0 -- -- 45
2019-09-18 17:00:00 31.4 13 Oeste 23 Sudoeste 0 -- -- 44
2019-09-18 16:00:00 31.4 11 Sudoeste 23 Sudoeste 0 -- -- 46
2019-09-18 15:00:00 30.6 9 Oeste 19 Oeste 0 -- -- 50
2019-09-18 14:00:00 29.7 7 Sur 14 Sudoeste 0 -- -- 50
2019-09-18 13:00:00 28.5 5 Sudoeste 10 Oeste 0 -- -- 58
2019-09-18 12:00:00 26.3 4 Norte 9 Sudeste 0 -- -- 66
2019-09-18 11:00:00 24.2 2 Norte 5 Oeste 0 -- -- 74
2019-09-18 10:00:00 21.6 0 Calma 3 Oeste 0 -- -- 86
2019-09-18 09:00:00 19.2 2 Nordeste 6 Norte 0 -- -- 96
2019-09-18 08:00:00 18.6 0 Calma 4 Nordeste 0 -- -- 96
2019-09-18 07:00:00 18.6 4 Nordeste 6 Nordeste 0 -- -- 95
2019-09-18 06:00:00 19 3 Sudoeste 4 Nordeste 0 -- -- 94
2019-09-18 05:00:00 18.8 0 Calma 2 Este 0 -- -- 95
2019-09-18 04:00:00 18.5 0 Calma 5 Nordeste 0 -- -- 96
2019-09-18 03:00:00 18 3 Nordeste 5 Este 0 -- -- 97
2019-09-18 02:00:00 18.1 0 Calma 5 Nordeste 0 -- -- 95
2019-09-18 01:00:00 19 2 Nordeste 5 Norte 0 -- -- 93
2019-09-18 00:00:00 19.5 2 Este 6 Norte 0 -- -- 92
2019-09-17 23:00:00 20.3 4 Nordeste 9 Nordeste 0 -- -- 90
2019-09-17 22:00:00 22 0 Calma 4 Este 0 -- -- 85
2019-09-17 21:00:00 23.7 2 Sudoeste 19 Sur 0 -- -- 78